Time;durP1;ratioP1;P1;durP2;ratioP2;P2;SDS_P1;SDS_P2;PMS_P1;PMS_P2;Temp;Humidity;BMP_temperature;BMP_pressure;BME280_temperature;BME280_humidity;BME280_pressure;Samples;Min_cycle;Max_cycle;Signal;HPM_P1;HPM_P2
2021/07/19 00:00:41;;;;;;;6.53;2.28;;;21.90;99.90;;;;;;5034767;28;20103;-71
2021/07/19 00:03:06;;;;;;;6.18;2.50;;;21.90;99.90;;;;;;5034712;28;20029;-72
2021/07/19 00:05:32;;;;;;;6.78;2.53;;;21.90;99.90;;;;;;5034775;28;20406;-72
2021/07/19 00:07:58;;;;;;;8.15;3.60;;;21.80;99.90;;;;;;5033208;28;20033;-72
2021/07/19 00:10:24;;;;;;;5.70;2.28;;;21.80;99.90;;;;;;5033653;28;20513;-72
2021/07/19 00:12:51;;;;;;;7.80;2.13;;;21.80;99.90;;;;;;5034469;28;20136;-71
2021/07/19 00:15:25;;;;;;;6.75;2.20;;;21.90;99.90;;;;;;5034543;28;20043;-72
2021/07/19 00:17:53;;;;;;;5.00;2.00;;;21.80;99.90;;;;;;5033314;28;20033;-71
2021/07/19 00:20:20;;;;;;;4.97;2.45;;;21.80;99.90;;;;;;5034589;28;20379;-72
2021/07/19 00:22:47;;;;;;;4.78;2.25;;;21.80;99.90;;;;;;5034583;28;20034;-71
2021/07/19 00:25:15;;;;;;;4.45;2.35;;;21.70;99.90;;;;;;5033146;28;20147;-72
2021/07/19 00:27:43;;;;;;;5.80;2.35;;;21.70;99.90;;;;;;5034199;28;20033;-72
2021/07/19 00:30:11;;;;;;;6.55;2.42;;;21.70;99.90;;;;;;5016447;28;20482;-72
2021/07/19 00:32:41;;;;;;;4.82;2.17;;;21.60;99.90;;;;;;5034122;28;20033;-71
2021/07/19 00:35:08;;;;;;;4.10;2.23;;;21.40;99.90;;;;;;5033206;28;20025;-72
2021/07/19 00:37:35;;;;;;;3.92;2.17;;;21.40;99.90;;;;;;5033066;28;20048;-72
2021/07/19 00:40:06;;;;;;;4.70;2.20;;;21.40;99.90;;;;;;5016408;28;20053;-72
2021/07/19 00:42:32;;;;;;;10.00;2.53;;;21.30;99.90;;;;;;5034192;28;20033;-72
2021/07/19 00:44:58;;;;;;;5.63;2.58;;;21.30;99.90;;;;;;5032790;28;20375;-72
2021/07/19 00:47:24;;;;;;;3.95;2.08;;;21.30;99.90;;;;;;5033730;28;20040;-72
2021/07/19 00:49:50;;;;;;;5.22;2.25;;;21.30;99.90;;;;;;5032634;28;20332;-72
2021/07/19 00:52:15;;;;;;;4.10;2.33;;;21.30;99.90;;;;;;5032686;28;20033;-72
2021/07/19 00:54:44;;;;;;;6.05;2.50;;;21.30;99.90;;;;;;5034310;28;20031;-72
2021/07/19 00:57:13;;;;;;;6.50;2.55;;;21.10;99.90;;;;;;5032722;28;20454;-72
2021/07/19 00:59:41;;;;;;;7.80;2.57;;;21.10;99.90;;;;;;5032594;28;20025;-72
2021/07/19 01:02:07;;;;;;;7.97;2.30;;;21.00;99.90;;;;;;5032643;28;20048;-72
2021/07/19 01:04:35;;;;;;;8.55;2.50;;;21.00;99.90;;;;;;5030969;28;20052;-72
2021/07/19 01:07:04;;;;;;;6.35;2.72;;;20.90;99.90;;;;;;5052728;28;20028;-72
2021/07/19 01:09:31;;;;;;;7.65;2.40;;;20.90;99.90;;;;;;5053565;28;20082;-72
2021/07/19 01:12:01;;;;;;;4.00;2.28;;;20.80;99.90;;;;;;5053462;28;20426;-72
2021/07/19 01:14:28;;;;;;;8.27;3.03;;;20.80;99.90;;;;;;5052409;28;20374;-72
2021/07/19 01:16:54;;;;;;;6.65;2.55;;;20.70;99.90;;;;;;5052318;28;20033;-72
2021/07/19 01:19:27;;;;;;;8.38;2.58;;;20.70;99.90;;;;;;5052268;28;20036;-72
2021/07/19 01:22:44;;;;;;;7.50;2.38;;;20.70;99.90;;;;;;5052115;28;20067;-72
2021/07/19 01:25:58;;;;;;;5.80;2.13;;;20.70;99.90;;;;;;5052085;28;20033;-72
2021/07/19 01:28:37;;;;;;;8.20;3.25;;;20.60;99.90;;;;;;5052770;28;20116;-72
2021/07/19 01:31:35;;;;;;;6.05;3.55;;;20.50;99.90;;;;;;5053021;28;20079;-72
2021/07/19 01:34:09;;;;;;;6.85;2.95;;;20.50;99.90;;;;;;5027761;28;20438;-72
2021/07/19 01:36:45;;;;;;;6.60;2.50;;;20.40;99.90;;;;;;5052041;28;20071;-72
2021/07/19 01:39:12;;;;;;;7.40;2.65;;;20.40;99.90;;;;;;5051608;28;20028;-72
2021/07/19 01:41:40;;;;;;;5.50;2.55;;;20.50;99.90;;;;;;5051913;28;20065;-72
2021/07/19 01:44:08;;;;;;;6.85;2.95;;;20.40;99.90;;;;;;5052577;28;20120;-72
2021/07/19 01:46:35;;;;;;;2.95;2.30;;;20.30;99.90;;;;;;5051426;28;20078;-72
2021/07/19 01:49:06;;;;;;;4.32;2.70;;;20.30;99.90;;;;;;5051613;28;20056;-72
2021/07/19 01:51:32;;;;;;;4.40;2.78;;;20.30;99.90;;;;;;5051337;28;20482;-72
2021/07/19 01:53:59;;;;;;;6.20;3.15;;;20.40;99.90;;;;;;5051707;28;20050;-72
2021/07/19 01:56:27;;;;;;;5.30;2.42;;;20.30;99.90;;;;;;5051529;28;20025;-72
2021/07/19 01:58:56;;;;;;;4.28;2.42;;;20.20;99.90;;;;;;5051501;28;20508;-72
2021/07/19 02:01:23;;;;;;;8.68;3.03;;;20.20;99.90;;;;;;5051379;28;20037;-72
2021/07/19 02:03:49;;;;;;;4.55;2.65;;;20.20;99.90;;;;;;5051832;28;20029;-72
2021/07/19 02:06:15;;;;;;;6.30;2.55;;;20.10;99.90;;;;;;5034645;28;20047;-72
2021/07/19 02:08:43;;;;;;;5.45;3.10;;;20.10;99.90;;;;;;5051430;28;20458;-72
2021/07/19 02:11:10;;;;;;;4.47;2.65;;;20.00;99.90;;;;;;5051227;28;20166;-72
2021/07/19 02:13:41;;;;;;;5.93;2.60;;;20.00;99.90;;;;;;5052067;28;20048;-72
2021/07/19 02:16:07;;;;;;;8.80;3.10;;;19.90;99.90;;;;;;5035129;28;20039;-72
2021/07/19 02:18:37;;;;;;;5.50;2.78;;;19.90;99.90;;;;;;5050948;28;20060;-72
2021/07/19 02:21:06;;;;;;;6.53;2.83;;;20.00;99.90;;;;;;5052030;28;20029;-72
2021/07/19 02:23:35;;;;;;;5.88;3.45;;;20.00;99.90;;;;;;5050797;28;20504;-72
2021/07/19 02:26:03;;;;;;;6.65;3.13;;;20.10;99.90;;;;;;5051260;28;20033;-72
2021/07/19 02:28:32;;;;;;;5.82;3.22;;;20.00;99.90;;;;;;5051970;28;20041;-72
2021/07/19 02:31:00;;;;;;;5.40;2.70;;;20.00;99.90;;;;;;5050893;28;20041;-72
2021/07/19 02:33:27;;;;;;;6.00;3.10;;;19.90;99.90;;;;;;5050566;28;20048;-72
2021/07/19 02:35:56;;;;;;;4.75;2.97;;;19.90;99.90;;;;;;5034575;28;20119;-72
2021/07/19 02:38:23;;;;;;;5.90;2.53;;;19.80;99.90;;;;;;5050908;28;20025;-72
2021/07/19 02:40:52;;;;;;;4.88;3.20;;;19.80;99.90;;;;;;5051041;28;20029;-72
2021/07/19 02:43:22;;;;;;;7.07;3.05;;;19.80;99.90;;;;;;5050867;28;20074;-72
2021/07/19 02:45:54;;;;;;;5.00;2.67;;;19.80;99.90;;;;;;5051153;28;20112;-71
2021/07/19 02:48:21;;;;;;;4.43;2.45;;;19.70;99.90;;;;;;5050569;28;20095;-72
2021/07/19 02:50:53;;;;;;;6.85;3.10;;;19.70;99.90;;;;;;5050724;28;20037;-72
2021/07/19 02:53:19;;;;;;;6.28;2.88;;;19.70;99.90;;;;;;5018042;28;20037;-72
2021/07/19 02:55:47;;;;;;;4.28;3.15;;;19.70;99.90;;;;;;5050818;28;20033;-72
2021/07/19 02:58:16;;;;;;;5.00;2.97;;;19.80;99.90;;;;;;5050648;28;20033;-72
2021/07/19 03:00:44;;;;;;;4.63;3.05;;;19.80;99.90;;;;;;5051783;28;20521;-72
2021/07/19 03:03:15;;;;;;;8.98;3.50;;;19.80;99.90;;;;;;5050461;28;20136;-72
2021/07/19 03:05:51;;;;;;;5.00;2.90;;;19.80;99.90;;;;;;5043956;28;20032;-72
2021/07/19 03:08:18;;;;;;;7.85;2.90;;;19.70;99.90;;;;;;5030670;28;20029;-72
2021/07/19 03:10:52;;;;;;;5.35;3.17;;;19.60;99.90;;;;;;5032090;28;20029;-72
2021/07/19 03:13:24;;;;;;;4.75;2.63;;;19.60;99.90;;;;;;5030225;28;20072;-72
2021/07/19 03:15:52;;;;;;;6.90;3.10;;;19.60;99.90;;;;;;5014670;28;20119;-72
2021/07/19 03:18:19;;;;;;;4.78;3.47;;;19.50;99.90;;;;;;5030644;28;20033;-72
2021/07/19 03:20:46;;;;;;;6.10;3.00;;;19.50;99.90;;;;;;5030321;28;20567;-72
2021/07/19 03:23:15;;;;;;;4.85;2.70;;;19.50;99.90;;;;;;5014241;28;20041;-72
2021/07/19 03:25:43;;;;;;;5.80;3.05;;;19.50;99.90;;;;;;5030331;28;20475;-72
2021/07/19 03:28:11;;;;;;;7.28;3.78;;;19.50;99.90;;;;;;5030375;28;20498;-72
2021/07/19 03:30:40;;;;;;;4.28;2.60;;;19.50;99.90;;;;;;5030229;28;20036;-72
2021/07/19 03:33:07;;;;;;;5.88;3.13;;;19.40;99.90;;;;;;5030387;28;20036;-72
2021/07/19 03:35:33;;;;;;;5.28;3.47;;;19.40;99.90;;;;;;5030570;28;20029;-72
2021/07/19 03:38:03;;;;;;;7.07;3.30;;;19.30;99.90;;;;;;5030398;28;20029;-72
2021/07/19 03:40:30;;;;;;;5.90;4.05;;;19.30;99.90;;;;;;5031568;28;20123;-72
2021/07/19 03:42:59;;;;;;;6.53;3.00;;;19.20;99.90;;;;;;5030253;28;20053;-72
2021/07/19 03:45:27;;;;;;;5.18;2.80;;;19.30;99.90;;;;;;5029955;28;20433;-72
2021/07/19 03:47:54;;;;;;;7.70;3.30;;;19.40;99.90;;;;;;5030184;28;20474;-72
2021/07/19 03:50:21;;;;;;;5.20;3.35;;;19.30;99.90;;;;;;5030055;28;20484;-72
2021/07/19 03:52:47;;;;;;;6.95;3.40;;;19.40;99.90;;;;;;5031819;28;20112;-72
2021/07/19 03:55:15;;;;;;;5.78;3.45;;;19.40;99.90;;;;;;5017473;28;20140;-72
2021/07/19 03:57:43;;;;;;;5.25;3.45;;;19.40;99.90;;;;;;5033800;28;20040;-72
2021/07/19 04:00:15;;;;;;;8.57;3.78;;;19.40;99.90;;;;;;5033880;28;20029;-72
2021/07/19 04:02:45;;;;;;;8.63;3.60;;;19.30;99.90;;;;;;5035106;28;20033;-72
2021/07/19 04:05:14;;;;;;;9.30;3.90;;;19.20;99.90;;;;;;5034838;28;20052;-72
2021/07/19 04:07:46;;;;;;;5.45;3.60;;;19.20;99.90;;;;;;5017610;28;20033;-72
2021/07/19 04:10:15;;;;;;;6.47;4.07;;;19.20;99.90;;;;;;5033425;28;20022;-72
2021/07/19 04:12:44;;;;;;;11.55;4.00;;;19.20;99.90;;;;;;5034680;28;20041;-72
2021/07/19 04:15:11;;;;;;;5.85;3.42;;;19.30;99.90;;;;;;5034835;28;20041;-72
2021/07/19 04:17:37;;;;;;;7.40;3.90;;;19.40;99.90;;;;;;5033158;28;20091;-72
2021/07/19 04:20:07;;;;;;;8.20;3.50;;;19.60;99.90;;;;;;5033515;28;20033;-72
2021/07/19 04:22:34;;;;;;;6.95;3.60;;;19.60;99.90;;;;;;5034642;28;20068;-72
2021/07/19 04:25:08;;;;;;;7.80;3.88;;;19.60;99.90;;;;;;5033065;28;20037;-72
2021/07/19 04:27:36;;;;;;;10.38;3.88;;;19.70;99.90;;;;;;5033317;28;20037;-71
2021/07/19 04:30:04;;;;;;;7.07;3.95;;;19.70;99.90;;;;;;5033476;28;20037;-72
2021/07/19 04:32:30;;;;;;;8.20;3.65;;;19.70;99.90;;;;;;5033287;28;20041;-72
2021/07/19 04:34:55;;;;;;;8.73;3.88;;;19.80;99.90;;;;;;5032943;28;20068;-72
2021/07/19 04:37:21;;;;;;;9.68;4.15;;;19.80;99.90;;;;;;5034408;28;20133;-73
2021/07/19 04:39:47;;;;;;;7.30;3.60;;;19.80;99.90;;;;;;5032947;28;20044;-72
2021/07/19 04:42:13;;;;;;;8.82;5.32;;;20.00;99.90;;;;;;5032753;28;20131;-72
2021/07/19 04:44:39;;;;;;;9.65;4.05;;;19.90;99.90;;;;;;5034047;28;20390;-72
2021/07/19 04:47:05;;;;;;;7.68;3.40;;;19.90;99.90;;;;;;5032756;28;20073;-71
2021/07/19 04:49:31;;;;;;;6.13;3.90;;;20.00;99.90;;;;;;5033862;28;20363;-72
2021/07/19 04:51:57;;;;;;;6.57;3.92;;;20.00;99.90;;;;;;5033983;28;20087;-73
2021/07/19 04:54:32;;;;;;;5.85;3.90;;;20.00;99.90;;;;;;5016257;28;20128;-72
2021/07/19 04:57:03;;;;;;;8.75;4.35;;;20.00;99.90;;;;;;5032756;28;20133;-73
2021/07/19 04:59:32;;;;;;;11.95;3.92;;;20.10;99.90;;;;;;5032703;28;20409;-71
2021/07/19 05:01:59;;;;;;;5.85;3.80;;;20.20;99.90;;;;;;5032411;28;20072;-72
2021/07/19 05:04:27;;;;;;;6.70;4.22;;;20.30;99.90;;;;;;5035655;28;20049;-73
2021/07/19 05:06:55;;;;;;;7.13;3.80;;;20.20;99.90;;;;;;5032619;28;20048;-72
2021/07/19 05:09:24;;;;;;;6.15;4.03;;;20.20;99.90;;;;;;5033588;28;20108;-73
2021/07/19 05:11:51;;;;;;;5.85;3.88;;;20.30;99.90;;;;;;5032437;28;20036;-72
2021/07/19 05:14:18;;;;;;;5.43;3.47;;;20.30;99.90;;;;;;5032461;28;20041;-72
2021/07/19 05:16:45;;;;;;;11.18;3.58;;;20.40;99.90;;;;;;5032378;28;20029;-72
2021/07/19 05:19:13;;;;;;;6.47;3.22;;;20.30;99.90;;;;;;5032763;28;20037;-72
2021/07/19 05:21:40;;;;;;;10.27;4.32;;;20.40;99.90;;;;;;5032219;28;20030;-73
2021/07/19 05:24:06;;;;;;;6.75;3.80;;;20.40;99.90;;;;;;5033591;28;20116;-72
2021/07/19 05:26:35;;;;;;;7.68;3.83;;;20.50;99.90;;;;;;5015412;28;20120;-71
2021/07/19 05:29:02;;;;;;;9.50;3.60;;;20.60;99.90;;;;;;5016017;28;20060;-72
2021/07/19 05:31:27;;;;;;;6.68;3.53;;;20.60;99.90;;;;;;5031648;28;20029;-71
2021/07/19 05:33:53;;;;;;;4.75;3.63;;;20.60;99.90;;;;;;5033570;28;20036;-72
2021/07/19 05:36:20;;;;;;;7.55;3.47;;;20.60;99.90;;;;;;5014965;28;20116;-63
2021/07/19 05:38:46;;;;;;;5.05;2.63;;;20.70;99.90;;;;;;5033394;28;20081;-64
2021/07/19 05:41:13;;;;;;;7.53;3.30;;;20.70;99.90;;;;;;5032422;28;20073;-63
2021/07/19 05:43:40;;;;;;;7.88;3.53;;;20.70;99.90;;;;;;5031895;28;20063;-63
2021/07/19 05:46:06;;;;;;;4.70;2.67;;;20.70;99.90;;;;;;5032005;28;20036;-64
2021/07/19 05:48:32;;;;;;;5.35;3.58;;;20.60;99.90;;;;;;5032980;28;20036;-63
2021/07/19 05:50:58;;;;;;;5.47;3.55;;;20.70;99.90;;;;;;5033019;28;20422;-63
2021/07/19 05:53:24;;;;;;;6.43;3.78;;;20.60;99.90;;;;;;5031397;28;20033;-64
2021/07/19 05:55:51;;;;;;;6.13;3.90;;;20.80;99.90;;;;;;5031499;28;20046;-65
2021/07/19 05:58:18;;;;;;;4.43;3.00;;;20.90;99.90;;;;;;5032817;28;20033;-66
2021/07/19 06:00:44;;;;;;;6.43;3.45;;;20.80;99.90;;;;;;5032502;28;20083;-65
2021/07/19 06:03:10;;;;;;;7.88;3.70;;;20.90;99.90;;;;;;5031499;28;20095;-65
2021/07/19 06:05:36;;;;;;;7.32;3.20;;;21.10;99.90;;;;;;5032829;28;20467;-65
2021/07/19 06:08:04;;;;;;;6.85;3.17;;;21.10;99.90;;;;;;5032611;28;20057;-65
2021/07/19 06:10:30;;;;;;;5.90;3.15;;;21.00;99.90;;;;;;5023027;28;20117;-71
2021/07/19 06:12:56;;;;;;;9.65;3.88;;;21.00;99.90;;;;;;5012805;28;20080;-73
2021/07/19 06:15:21;;;;;;;7.18;3.80;;;21.10;99.90;;;;;;5012797;28;20029;-70
2021/07/19 06:17:48;;;;;;;7.97;3.30;;;21.20;99.90;;;;;;5012994;28;20030;-75
2021/07/19 06:20:18;;;;;;;7.40;3.75;;;21.30;99.90;;;;;;5011350;28;20037;-73
2021/07/19 06:22:45;;;;;;;5.97;3.53;;;21.20;99.90;;;;;;5010868;28;20033;-73
2021/07/19 06:25:14;;;;;;;5.43;3.20;;;21.20;99.90;;;;;;5010192;28;20025;-73
2021/07/19 06:27:44;;;;;;;5.13;3.42;;;21.00;99.90;;;;;;5012722;28;20045;-72
2021/07/19 06:30:12;;;;;;;7.70;3.20;;;21.00;99.90;;;;;;5011397;28;20026;-72
2021/07/19 06:32:39;;;;;;;10.40;3.60;;;21.10;99.90;;;;;;5012397;28;20030;-73
2021/07/19 06:35:06;;;;;;;8.05;3.38;;;21.10;99.90;;;;;;5011278;28;20068;-72
2021/07/19 06:37:32;;;;;;;6.43;3.15;;;21.30;99.90;;;;;;5012370;28;20438;-73
2021/07/19 06:39:58;;;;;;;5.05;3.08;;;21.30;99.90;;;;;;5011022;28;20553;-74
2021/07/19 06:42:24;;;;;;;7.80;2.85;;;21.30;99.90;;;;;;5012600;28;20120;-71
2021/07/19 06:44:53;;;;;;;4.47;3.10;;;21.40;99.90;;;;;;5012556;28;20033;-72
2021/07/19 06:47:20;;;;;;;4.47;2.90;;;21.30;99.90;;;;;;5012602;28;20033;-73
2021/07/19 06:49:46;;;;;;;5.28;3.05;;;21.30;99.90;;;;;;5011168;28;20041;-73
2021/07/19 06:52:12;;;;;;;7.63;3.22;;;21.40;99.90;;;;;;5011473;28;20034;-73
2021/07/19 06:54:38;;;;;;;5.82;2.95;;;21.50;99.90;;;;;;5011155;28;20049;-72
2021/07/19 06:57:04;;;;;;;8.40;3.40;;;21.40;99.90;;;;;;5012596;28;20033;-72
2021/07/19 06:59:30;;;;;;;6.40;3.17;;;21.40;99.90;;;;;;5012081;28;20056;-72
2021/07/19 07:01:56;;;;;;;7.53;2.97;;;21.50;99.90;;;;;;5012147;28;20109;-72
2021/07/19 07:04:22;;;;;;;7.53;3.28;;;21.50;99.90;;;;;;5011371;28;20081;-73
2021/07/19 07:06:48;;;;;;;7.95;3.10;;;21.50;99.90;;;;;;5010724;28;20455;-72
2021/07/19 07:09:14;;;;;;;7.18;3.25;;;21.70;99.90;;;;;;5040308;28;20059;-72
2021/07/19 07:11:40;;;;;;;6.07;2.80;;;21.70;99.90;;;;;;5051983;28;20493;-73
2021/07/19 07:14:07;;;;;;;7.43;3.00;;;21.70;99.90;;;;;;5051530;28;20128;-73
2021/07/19 07:16:33;;;;;;;5.30;2.97;;;21.80;99.90;;;;;;5051781;28;20036;-73
2021/07/19 07:19:00;;;;;;;6.15;3.17;;;21.80;99.90;;;;;;5050587;28;20032;-72
2021/07/19 07:21:26;;;;;;;4.93;2.75;;;21.90;99.90;;;;;;5051685;28;20548;-72
2021/07/19 07:23:52;;;;;;;6.85;3.13;;;21.90;99.90;;;;;;5052021;28;20033;-72
2021/07/19 07:26:18;;;;;;;4.45;2.92;;;21.90;99.90;;;;;;5051969;28;20033;-72
2021/07/19 07:28:45;;;;;;;8.35;3.22;;;21.80;99.90;;;;;;5054849;28;20037;-72
2021/07/19 07:31:11;;;;;;;6.40;3.00;;;21.90;99.90;;;;;;5054386;28;20033;-72
2021/07/19 07:33:37;;;;;;;4.90;3.05;;;21.90;99.90;;;;;;5055687;28;20029;-72
2021/07/19 07:36:05;;;;;;;7.10;3.10;;;22.00;99.90;;;;;;5054228;28;20493;-73
2021/07/19 07:38:32;;;;;;;7.70;3.10;;;22.00;99.90;;;;;;5053692;28;20021;-73
2021/07/19 07:40:58;;;;;;;6.10;3.13;;;22.10;99.90;;;;;;5053755;28;20031;-73
2021/07/19 07:43:24;;;;;;;8.32;3.25;;;22.10;99.90;;;;;;5054934;28;20056;-74
2021/07/19 07:45:50;;;;;;;5.55;2.92;;;22.10;99.90;;;;;;5053790;28;20051;-71
2021/07/19 07:48:17;;;;;;;4.53;3.05;;;22.10;99.90;;;;;;5037141;28;20120;-74
2021/07/19 07:50:45;;;;;;;6.13;3.35;;;22.20;99.90;;;;;;5054516;28;20036;-72
2021/07/19 07:53:11;;;;;;;5.72;3.05;;;22.30;99.90;;;;;;5054920;28;20124;-75
2021/07/19 07:55:37;;;;;;;7.50;3.25;;;22.40;99.90;;;;;;5036869;28;20029;-74
2021/07/19 07:58:07;;;;;;;7.25;3.10;;;22.40;99.90;;;;;;5054937;28;20041;-72
2021/07/19 08:00:34;;;;;;;5.50;2.67;;;22.50;99.90;;;;;;5054998;28;20226;-84
2021/07/19 08:03:00;;;;;;;7.25;2.72;;;22.60;99.90;;;;;;5054814;28;20037;-73
2021/07/19 08:05:26;;;;;;;4.82;2.60;;;22.60;99.90;;;;;;5055261;28;20106;-75
2021/07/19 08:07:52;;;;;;;8.85;2.97;;;22.80;99.90;;;;;;5053313;28;20029;-75
2021/07/19 08:10:18;;;;;;;4.55;2.53;;;22.70;99.90;;;;;;5053422;28;20025;-75
2021/07/19 08:12:44;;;;;;;5.47;2.92;;;22.80;99.90;;;;;;5054254;28;20415;-76
2021/07/19 08:15:14;;;;;;;7.57;2.90;;;23.00;99.90;;;;;;5053385;28;20048;-78
2021/07/19 08:17:40;;;;;;;6.40;2.70;;;23.20;99.90;;;;;;5053178;28;20033;-78
2021/07/19 08:20:08;;;;;;;4.68;2.42;;;23.30;99.90;;;;;;5053461;28;20538;-77
2021/07/19 08:22:34;;;;;;;6.00;3.20;;;23.30;99.90;;;;;;5054548;28;20485;-76
2021/07/19 08:25:00;;;;;;;6.88;2.80;;;23.40;99.90;;;;;;5052465;28;20100;-75
2021/07/19 08:27:26;;;;;;;5.95;2.58;;;23.50;99.90;;;;;;5051091;28;20037;-74
2021/07/19 08:29:53;;;;;;;9.30;3.80;;;23.60;99.90;;;;;;5053535;28;20021;-74
2021/07/19 08:32:20;;;;;;;5.47;2.90;;;23.60;99.90;;;;;;5053430;28;20061;-75
2021/07/19 08:34:47;;;;;;;6.82;3.10;;;23.60;99.90;;;;;;5053980;28;20048;-75
2021/07/19 08:37:16;;;;;;;24.38;5.95;;;23.70;99.90;;;;;;5042738;28;20509;-77
2021/07/19 08:43:01;;;;;;;7.72;3.40;;;23.70;99.90;;;;;;5009616;28;20124;-77
2021/07/19 08:50:10;;;;;;;4.88;2.33;;;23.80;99.90;;;;;;4943205;28;20077;-76
2021/07/19 08:52:37;;;;;;;7.70;3.03;;;24.00;99.90;;;;;;4956966;28;20031;-66
2021/07/19 08:55:06;;;;;;;7.38;3.08;;;24.20;99.90;;;;;;4972910;28;20119;-65
2021/07/19 08:57:33;;;;;;;5.55;2.38;;;24.20;99.90;;;;;;4972567;28;20058;-67
2021/07/19 09:00:04;;;;;;;17.75;3.60;;;24.40;99.90;;;;;;4972618;28;20046;-66
2021/07/19 09:02:31;;;;;;;3.83;2.33;;;24.40;99.90;;;;;;4979981;28;20037;-64
2021/07/19 09:04:58;;;;;;;7.35;2.80;;;24.50;99.90;;;;;;4975911;28;20519;-68
2021/07/19 09:07:24;;;;;;;8.27;3.38;;;24.60;99.90;;;;;;4976066;28;20038;-66
2021/07/19 09:09:51;;;;;;;6.85;2.80;;;24.60;99.90;;;;;;4991930;28;20423;-66
2021/07/19 09:12:29;;;;;;;4.82;2.85;;;24.80;99.90;;;;;;4991772;28;20117;-66
2021/07/19 09:14:54;;;;;;;11.15;3.58;;;25.00;99.90;;;;;;4977379;28;20044;-66
2021/07/19 09:17:28;;;;;;;5.38;2.70;;;25.30;99.90;;;;;;4975862;28;20026;-66
2021/07/19 09:19:56;;;;;;;8.63;2.80;;;25.30;99.90;;;;;;4991536;28;20126;-67
2021/07/19 09:22:26;;;;;;;9.10;2.63;;;25.30;99.90;;;;;;4975947;28;20472;-66
2021/07/19 09:25:05;;;;;;;10.48;2.72;;;25.00;99.90;;;;;;5013649;28;20041;-66
2021/07/19 09:27:31;;;;;;;5.03;2.90;;;25.00;99.90;;;;;;5052290;28;20037;-66
2021/07/19 09:29:57;;;;;;;4.68;2.58;;;25.10;99.90;;;;;;5051740;28;20025;-66
2021/07/19 09:32:23;;;;;;;6.45;2.88;;;25.10;99.90;;;;;;5053507;28;20056;-66
2021/07/19 09:34:49;;;;;;;6.82;2.53;;;25.00;99.90;;;;;;5053010;28;20063;-66
2021/07/19 09:37:16;;;;;;;6.43;3.20;;;25.10;99.90;;;;;;5052065;28;20061;-67
2021/07/19 09:39:53;;;;;;;7.85;3.45;;;24.90;99.90;;;;;;5053190;28;20100;-65
2021/07/19 09:42:22;;;;;;;5.97;2.40;;;24.90;99.90;;;;;;5053186;28;20029;-65
2021/07/19 09:44:58;;;;;;;4.60;2.42;;;25.00;99.90;;;;;;5051952;28;20107;-63
2021/07/19 09:47:40;;;;;;;3.60;2.58;;;25.10;99.90;;;;;;5051639;28;20394;-65
2021/07/19 09:50:18;;;;;;;7.25;2.28;;;25.20;99.90;;;;;;5051522;28;20027;-65
2021/07/19 09:52:46;;;;;;;6.97;3.97;;;25.30;99.90;;;;;;5051645;28;20029;-65
2021/07/19 09:55:32;;;;;;;6.22;3.22;;;25.30;99.90;;;;;;5052720;28;20039;-65
2021/07/19 09:58:00;;;;;;;4.57;2.50;;;25.30;99.90;;;;;;5052396;28;20068;-66
2021/07/19 10:00:28;;;;;;;7.07;2.35;;;25.30;99.90;;;;;;5051443;28;20063;-65
2021/07/19 10:02:54;;;;;;;7.72;2.85;;;25.40;99.90;;;;;;5050321;28;20074;-65
2021/07/19 10:05:31;;;;;;;5.20;2.30;;;25.50;99.90;;;;;;5052589;28;20036;-66
2021/07/19 10:08:01;;;;;;;7.50;2.50;;;25.70;99.90;;;;;;5052299;28;20403;-66
2021/07/19 10:10:42;;;;;;;5.65;2.75;;;25.70;99.90;;;;;;5052110;28;20078;-66
2021/07/19 10:13:09;;;;;;;9.82;2.53;;;25.60;99.90;;;;;;5018636;28;20415;-65
2021/07/19 10:15:38;;;;;;;9.25;3.08;;;25.80;99.90;;;;;;5017877;28;20513;-66
2021/07/19 10:18:11;;;;;;;7.72;2.78;;;25.80;99.90;;;;;;5023520;28;20065;-65
2021/07/19 10:20:39;;;;;;;7.93;2.50;;;25.90;99.90;;;;;;5026493;28;20036;-65
2021/07/19 10:23:06;;;;;;;5.60;2.67;;;26.10;99.90;;;;;;5031304;28;20063;-68
2021/07/19 10:25:37;;;;;;;5.07;2.55;;;26.30;99.90;;;;;;5021702;28;20037;-69
2021/07/19 10:28:04;;;;;;;7.60;2.75;;;26.20;99.90;;;;;;5019459;28;20163;-68
2021/07/19 10:30:30;;;;;;;5.38;2.90;;;26.20;99.90;;;;;;5014419;28;20033;-68
2021/07/19 10:32:56;;;;;;;5.85;2.83;;;26.10;99.90;;;;;;5042669;28;20037;-68
2021/07/19 10:35:28;;;;;;;6.38;3.50;;;26.20;99.90;;;;;;5052527;28;20115;-67
2021/07/19 10:38:19;;;;;;;12.18;3.03;;;26.10;99.90;;;;;;5050978;28;20029;-68
2021/07/19 10:40:45;;;;;;;;;;;26.20;99.90;;;;;;5046049;28;20099;-68
2021/07/19 10:43:15;;;;;;;8.32;2.78;;;26.20;99.90;;;;;;5040450;28;19917;-67
2021/07/19 10:45:50;;;;;;;5.45;3.03;;;26.10;99.90;;;;;;5010880;28;20086;-67
2021/07/19 10:48:31;;;;;;;5.38;3.20;;;26.30;99.90;;;;;;5011257;28;20041;-68
2021/07/19 10:51:12;;;;;;;7.25;2.80;;;26.30;99.90;;;;;;5012514;28;20113;-67
2021/07/19 10:53:38;;;;;;;6.07;2.28;;;26.30;99.90;;;;;;5012239;28;20100;-68
2021/07/19 10:56:10;;;;;;;4.68;2.60;;;26.30;99.90;;;;;;5012288;28;20434;-68
2021/07/19 10:58:38;;;;;;;4.70;2.50;;;26.30;99.90;;;;;;5026909;28;20432;-68
2021/07/19 11:01:05;;;;;;;4.60;2.47;;;26.30;99.90;;;;;;5031881;28;20030;-68
2021/07/19 11:03:39;;;;;;;4.57;2.60;;;26.50;99.90;;;;;;5035585;28;20030;-68
2021/07/19 11:06:05;;;;;;;7.10;3.35;;;26.30;99.90;;;;;;5036059;28;20025;-68
2021/07/19 11:08:31;;;;;;;9.70;3.60;;;26.40;99.90;;;;;;5036423;28;20447;-68
2021/07/19 11:10:58;;;;;;;5.80;2.65;;;26.40;99.90;;;;;;5034692;28;20116;-68
2021/07/19 11:13:36;;;;;;;5.97;2.72;;;26.50;99.90;;;;;;5034544;28;20053;-68
2021/07/19 11:16:15;;;;;;;7.05;2.90;;;26.60;99.90;;;;;;5035244;28;20037;-68
2021/07/19 11:18:40;;;;;;;5.65;2.67;;;26.80;99.90;;;;;;5034915;28;20064;-68
2021/07/19 11:21:06;;;;;;;4.13;2.72;;;27.00;99.90;;;;;;5036029;28;20069;-68
2021/07/19 11:23:40;;;;;;;8.13;3.00;;;27.00;99.90;;;;;;5035742;28;20490;-68
2021/07/19 11:26:23;;;;;;;9.15;2.80;;;27.00;99.70;;;;;;5034770;28;20539;-68
2021/07/19 11:28:49;;;;;;;6.05;2.67;;;26.90;99.50;;;;;;5034418;28;20394;-67
2021/07/19 11:31:28;;;;;;;4.00;2.80;;;26.80;99.30;;;;;;5035602;28;20033;-67
2021/07/19 11:34:05;;;;;;;4.65;2.25;;;26.80;99.20;;;;;;5035478;28;20068;-67
2021/07/19 11:36:45;;;;;;;6.28;2.60;;;26.90;98.90;;;;;;5035612;28;20037;-67
2021/07/19 11:39:20;;;;;;;4.60;2.20;;;27.00;98.70;;;;;;5034510;28;20124;-67
2021/07/19 11:42:06;;;;;;;5.38;2.67;;;27.10;98.40;;;;;;5035318;28;20497;-67
2021/07/19 11:44:32;;;;;;;5.47;2.88;;;27.10;98.00;;;;;;5035667;28;20033;-71
2021/07/19 11:47:03;;;;;;;5.97;2.90;;;27.20;97.80;;;;;;5043655;28;20029;-72
2021/07/19 11:49:30;;;;;;;3.63;2.17;;;27.40;97.30;;;;;;5055443;28;20104;-72
2021/07/19 11:51:56;;;;;;;5.68;2.30;;;27.80;97.00;;;;;;5037265;28;20032;-76
2021/07/19 11:54:22;;;;;;;4.25;2.60;;;27.80;96.50;;;;;;5053958;28;20486;-75
2021/07/19 11:56:52;;;;;;;4.18;2.42;;;28.00;96.20;;;;;;5053745;28;20025;-76
2021/07/19 11:59:26;;;;;;;4.68;2.28;;;28.10;95.20;;;;;;5016988;28;20485;-74
2021/07/19 12:02:06;;;;;;;5.05;2.70;;;28.10;94.80;;;;;;5012739;28;20483;-76
2021/07/19 12:04:45;;;;;;;4.13;1.97;;;28.10;94.90;;;;;;5012739;28;20026;-75
2021/07/19 12:07:12;;;;;;;5.68;2.60;;;28.10;95.40;;;;;;5014354;28;20034;-74
2021/07/19 12:09:42;;;;;;;5.65;2.42;;;28.30;94.70;;;;;;4997729;28;20073;-76
2021/07/19 12:12:08;;;;;;;5.22;2.60;;;28.50;94.30;;;;;;5015040;28;20107;-76
2021/07/19 12:14:34;;;;;;;6.68;2.60;;;28.20;94.00;;;;;;5014766;28;20034;-76
2021/07/19 12:17:01;;;;;;;6.20;2.85;;;28.50;94.10;;;;;;4997292;28;20040;-75
2021/07/19 12:19:27;;;;;;;4.43;2.35;;;28.70;94.00;;;;;;5014917;28;20084;-76
2021/07/19 12:22:00;;;;;;;10.52;2.47;;;28.80;93.50;;;;;;5013529;28;20049;-77
2021/07/19 12:24:30;;;;;;;4.68;2.10;;;28.90;92.60;;;;;;4997465;28;20030;-76
2021/07/19 12:27:01;;;;;;;7.88;2.92;;;28.80;92.20;;;;;;5013588;28;20032;-75
2021/07/19 12:29:36;;;;;;;5.53;2.67;;;28.60;92.70;;;;;;5013914;28;20034;-76
2021/07/19 12:32:08;;;;;;;5.97;2.75;;;28.70;92.70;;;;;;5014644;28;20030;-76
2021/07/19 12:34:41;;;;;;;7.60;3.10;;;28.80;92.40;;;;;;5015050;28;20038;-76
2021/07/19 12:37:17;;;;;;;4.57;2.88;;;28.70;92.30;;;;;;5013391;28;20478;-75
2021/07/19 12:39:49;;;;;;;5.60;2.95;;;29.00;92.60;;;;;;5013720;28;20069;-76
2021/07/19 12:42:26;;;;;;;5.13;2.88;;;29.20;92.10;;;;;;5014913;28;20045;-76
2021/07/19 12:44:58;;;;;;;6.57;3.20;;;29.20;91.90;;;;;;5029809;28;20046;-76
2021/07/19 12:47:28;;;;;;;5.38;2.92;;;29.20;91.60;;;;;;5013279;28;20477;-74
2021/07/19 12:49:54;;;;;;;6.30;2.73;;;29.30;91.00;;;;;;5013382;28;20490;-75
2021/07/19 12:52:32;;;;;;;6.05;3.10;;;29.10;91.20;;;;;;5014650;28;20284;-74
2021/07/19 12:55:07;;;;;;;6.65;3.60;;;29.30;90.80;;;;;;5014330;28;20053;-75
2021/07/19 12:57:37;;;;;;;9.77;5.15;;;29.40;91.00;;;;;;5014499;28;20026;-74
2021/07/19 13:00:12;;;;;;;6.90;3.45;;;29.60;91.30;;;;;;5014067;28;20045;-74
2021/07/19 13:02:39;;;;;;;7.07;4.47;;;29.70;90.60;;;;;;5014759;28;20128;-75